createdAt,value
2019-01-25T00:02:00.585Z,46.07
2019-01-25T00:04:31.029Z,58.23
2019-01-25T00:07:01.409Z,55.60
2019-01-25T00:09:31.841Z,55.53
2019-01-25T00:12:02.275Z,61.03
2019-01-25T00:14:32.752Z,48.80
2019-01-25T00:17:03.197Z,66.43
2019-01-25T00:19:34.322Z,57.60
2019-01-25T00:22:04.999Z,23.57
2019-01-25T00:24:35.332Z,50.00
2019-01-25T00:27:05.627Z,67.30
2019-01-25T00:29:35.975Z,47.07
2019-01-25T00:32:06.727Z,49.90
2019-01-25T00:34:37.341Z,54.57
2019-01-25T00:37:07.998Z,53.60
2019-01-25T00:39:38.372Z,51.27
2019-01-25T00:42:08.941Z,53.93
2019-01-25T00:44:39.460Z,52.70
2019-01-25T00:47:10.573Z,48.10
2019-01-25T00:49:41.467Z,48.63
2019-01-25T00:52:12.045Z,39.80
2019-01-25T00:54:42.671Z,29.43
2019-01-25T00:57:13.179Z,50.03
2019-01-25T00:59:43.727Z,57.20
2019-01-25T01:02:14.301Z,61.37
2019-01-25T01:04:44.926Z,51.50
2019-01-25T01:07:15.413Z,51.57
2019-01-25T01:09:45.899Z,58.50
2019-01-25T01:12:16.488Z,55.47
2019-01-25T01:14:46.821Z,54.70
2019-01-25T01:17:17.226Z,51.67
2019-01-25T01:19:47.494Z,57.20
2019-01-25T01:22:17.821Z,55.63
2019-01-25T01:24:48.211Z,57.20
2019-01-25T01:27:18.669Z,41.23
2019-01-25T01:29:48.977Z,52.03
2019-01-25T01:32:19.523Z,54.40
2019-01-25T01:34:49.909Z,47.17
2019-01-25T01:37:20.201Z,64.03
2019-01-25T01:39:50.455Z,51.40
2019-01-25T01:42:20.925Z,56.60
2019-01-25T01:44:51.652Z,54.57
2019-01-25T01:47:22.047Z,56.20
2019-01-25T01:49:52.854Z,53.77
2019-01-25T01:52:23.718Z,55.43
2019-01-25T01:54:54.635Z,45.50
2019-01-25T01:57:25.339Z,63.43
2019-01-25T01:59:56.167Z,44.80
2019-01-25T02:02:26.903Z,37.27
2019-01-25T02:04:57.505Z,55.53
2019-01-25T02:07:28.022Z,52.13
2019-01-25T02:09:58.857Z,57.53
2019-01-25T02:12:29.345Z,40.23
2019-01-25T02:15:00.160Z,61.63
2019-01-25T02:17:30.749Z,52.67
2019-01-25T02:20:01.360Z,55.83
2019-01-25T02:22:31.926Z,45.47
2019-01-25T02:25:02.399Z,53.80
2019-01-25T02:27:32.885Z,55.27
2019-01-25T02:30:03.574Z,47.80
2019-01-25T02:32:34.039Z,52.60
2019-01-25T02:35:04.970Z,56.67
2019-01-25T02:37:35.735Z,50.77
2019-01-25T02:40:06.951Z,55.53
2019-01-25T02:42:37.582Z,55.87
2019-01-25T02:45:09.722Z,57.70
2019-01-25T02:47:40.551Z,51.37
2019-01-25T02:50:15.614Z,52.47
2019-01-25T02:52:46.039Z,46.87
2019-01-25T02:55:16.637Z,44.10
2019-01-25T02:57:47.346Z,30.53
2019-01-25T03:00:22.567Z,52.70
2019-01-25T03:02:53.739Z,57.93
2019-01-25T03:05:25.250Z,52.30
2019-01-25T03:07:55.677Z,59.27
2019-01-25T03:10:29.142Z,62.20
2019-01-25T03:12:58.160Z,57.07
2019-01-25T03:15:28.576Z,59.37
2019-01-25T03:17:59.192Z,59.77
2019-01-25T03:20:29.781Z,55.43
2019-01-25T03:23:00.166Z,56.77
2019-01-25T03:25:30.570Z,38.20
2019-01-25T03:28:00.984Z,64.37
2019-01-25T03:30:31.435Z,60.43
2019-01-25T03:33:02.039Z,57.57
2019-01-25T03:35:32.407Z,53.70
2019-01-25T03:38:02.928Z,67.37
2019-01-25T03:40:33.403Z,61.37
2019-01-25T03:43:04.156Z,59.63
2019-01-25T03:45:34.744Z,60.17
2019-01-25T03:48:05.111Z,68.60
2019-01-25T03:50:35.537Z,59.07
2019-01-25T03:53:05.882Z,53.47
2019-01-25T03:55:36.458Z,59.13
2019-01-25T03:58:07.008Z,59.87
2019-01-25T04:00:37.368Z,48.30
2019-01-25T04:03:07.718Z,61.70
2019-01-25T04:05:38.141Z,64.73
2019-01-25T04:08:08.848Z,41.03
2019-01-25T04:10:39.346Z,64.47
2019-01-25T04:13:09.854Z,57.97
2019-01-25T04:15:40.623Z,56.03
2019-01-25T04:18:11.882Z,61.23
2019-01-25T04:20:42.188Z,67.70
2019-01-25T04:23:12.458Z,63.07
2019-01-25T04:25:42.766Z,66.63
2019-01-25T04:28:13.244Z,59.77
2019-01-25T04:30:43.690Z,57.60
2019-01-25T04:33:14.300Z,52.13
2019-01-25T04:35:44.543Z,53.77
2019-01-25T04:38:15.072Z,70.07
2019-01-25T04:40:45.291Z,62.27
2019-01-25T04:43:15.693Z,57.20
2019-01-25T04:45:46.780Z,65.57
2019-01-25T04:48:17.152Z,47.57
2019-01-25T04:50:47.509Z,47.97
2019-01-25T04:53:18.140Z,61.67
2019-01-25T04:55:48.565Z,65.57
2019-01-25T04:58:19.788Z,56.00
2019-01-25T05:00:50.080Z,62.73
2019-01-25T05:03:22.874Z,69.90
2019-01-25T05:05:53.608Z,71.33
2019-01-25T05:08:24.066Z,66.27
2019-01-25T05:10:54.486Z,54.93
2019-01-25T05:13:24.853Z,61.57
2019-01-25T05:15:55.226Z,70.43
2019-01-25T05:18:25.674Z,51.63
2019-01-25T05:20:55.991Z,58.77
2019-01-25T05:23:26.437Z,50.23
2019-01-25T05:25:56.865Z,43.67
2019-01-25T05:28:27.218Z,51.53
2019-01-25T05:31:02.493Z,61.23
2019-01-25T05:33:33.312Z,49.27
2019-01-25T05:36:03.832Z,59.13
2019-01-25T05:38:34.575Z,69.70
2019-01-25T05:41:05.230Z,53.40
2019-01-25T05:43:40.571Z,63.37
2019-01-25T05:46:11.065Z,62.23
2019-01-25T05:48:41.851Z,57.27
2019-01-25T05:51:12.632Z,65.23
2019-01-25T05:53:52.894Z,63.00
2019-01-25T05:56:23.882Z,64.10
2019-01-25T05:58:54.565Z,67.73
2019-01-25T06:01:26.409Z,68.87
2019-01-25T06:03:57.098Z,63.17
2019-01-25T06:06:27.676Z,48.50
2019-01-25T06:08:58.025Z,65.87
2019-01-25T06:11:35.252Z,56.40
2019-01-25T06:14:00.821Z,42.77
2019-01-25T06:16:31.523Z,56.43
2019-01-25T06:19:02.419Z,66.53
2019-01-25T06:21:33.026Z,62.17
2019-01-25T06:24:03.482Z,59.93
2019-01-25T06:26:34.281Z,60.17
2019-01-25T06:29:04.845Z,70.00
2019-01-25T06:31:35.288Z,64.13
2019-01-25T06:34:05.755Z,58.63
2019-01-25T06:36:36.590Z,61.87
2019-01-25T06:39:09.514Z,71.33
2019-01-25T06:41:44.106Z,53.97
2019-01-25T06:44:12.188Z,68.93
2019-01-25T06:46:42.930Z,48.53
2019-01-25T06:49:13.245Z,74.57
2019-01-25T06:51:43.926Z,38.03
2019-01-25T06:54:14.380Z,52.03
2019-01-25T06:56:45.430Z,59.70
2019-01-25T06:59:18.644Z,49.27
2019-01-25T07:02:08.278Z,74.10
2019-01-25T07:04:38.553Z,56.20
2019-01-25T07:07:17.782Z,50.67
2019-01-25T07:09:49.764Z,63.40
2019-01-25T07:12:20.496Z,64.17
2019-01-25T07:14:51.525Z,67.50
2019-01-25T07:17:22.580Z,82.80
2019-01-25T07:19:53.936Z,71.40
2019-01-25T07:22:25.554Z,73.30
2019-01-25T07:24:57.321Z,70.53
2019-01-25T07:27:28.120Z,58.53
2019-01-25T07:29:58.513Z,73.90
2019-01-25T07:32:28.896Z,81.47
2019-01-25T07:34:59.484Z,100.87
2019-01-25T07:37:29.800Z,64.77
2019-01-25T07:40:00.454Z,78.70
2019-01-25T07:42:31.108Z,75.07
2019-01-25T07:45:01.636Z,75.47
2019-01-25T07:47:33.440Z,77.90
2019-01-25T07:50:04.019Z,78.73
2019-01-25T07:52:34.477Z,81.43
2019-01-25T07:55:05.296Z,74.87
2019-01-25T07:57:35.704Z,74.20
2019-01-25T08:00:06.333Z,72.23
2019-01-25T08:02:37.126Z,79.50
2019-01-25T08:05:08.159Z,80.13
2019-01-25T08:07:38.761Z,59.73
2019-01-25T08:10:11.877Z,71.20
2019-01-25T08:12:42.566Z,65.93
2019-01-25T08:15:15.220Z,67.47
2019-01-25T08:17:45.646Z,61.00
2019-01-25T08:20:16.388Z,64.40
2019-01-25T08:22:46.933Z,64.50
2019-01-25T08:25:17.650Z,66.37
2019-01-25T08:27:49.047Z,61.03
2019-01-25T08:30:19.966Z,67.27
2019-01-25T08:32:51.633Z,72.50
2019-01-25T08:35:22.525Z,69.17
2019-01-25T08:37:53.142Z,66.27
2019-01-25T08:40:24.053Z,66.77
2019-01-25T08:42:54.515Z,76.80
2019-01-25T08:45:24.892Z,65.37
2019-01-25T08:47:55.335Z,74.80
2019-01-25T08:50:26.066Z,79.73
2019-01-25T08:52:56.593Z,77.37
2019-01-25T08:55:26.960Z,74.97
2019-01-25T08:57:57.481Z,90.27
2019-01-25T09:00:28.120Z,77.53
2019-01-25T09:02:58.695Z,84.87
2019-01-25T09:05:28.972Z,86.33
2019-01-25T09:07:59.400Z,78.23
2019-01-25T09:10:29.965Z,60.60
2019-01-25T09:13:00.401Z,58.43
2019-01-25T09:15:31.418Z,62.77
2019-01-25T09:18:02.157Z,66.37
2019-01-25T09:20:32.820Z,55.00
2019-01-25T09:23:03.477Z,77.43
2019-01-25T09:25:34.150Z,70.40
2019-01-25T09:28:05.156Z,70.87
2019-01-25T09:30:35.708Z,69.40
2019-01-25T09:33:06.510Z,63.07
2019-01-25T09:35:37.422Z,60.57
2019-01-25T09:38:08.133Z,55.93
2019-01-25T09:40:38.505Z,64.50
2019-01-25T09:43:09.127Z,59.30
2019-01-25T09:45:39.949Z,66.57
2019-01-25T09:48:10.789Z,65.40
2019-01-25T09:50:41.461Z,62.13
2019-01-25T09:53:12.258Z,53.23
2019-01-25T09:55:42.887Z,60.13
2019-01-25T09:58:15.550Z,65.83
2019-01-25T10:00:52.757Z,68.50
2019-01-25T10:03:23.211Z,58.87
2019-01-25T10:05:53.554Z,60.37
2019-01-25T10:08:24.012Z,70.03
2019-01-25T10:10:54.278Z,71.83
2019-01-25T10:13:25.255Z,66.33
2019-01-25T10:15:55.863Z,64.90
2019-01-25T10:18:26.159Z,69.17
2019-01-25T10:20:56.519Z,56.17
2019-01-25T10:23:27.409Z,65.43
2019-01-25T10:25:58.029Z,82.77
2019-01-25T10:28:28.663Z,67.30
2019-01-25T10:30:59.362Z,77.63
2019-01-25T10:33:29.823Z,48.20
2019-01-25T10:36:01.099Z,44.80
2019-01-25T10:38:31.976Z,80.53
2019-01-25T10:41:02.684Z,58.60
2019-01-25T10:43:33.179Z,60.23
2019-01-25T10:46:03.587Z,75.43
2019-01-25T10:48:34.166Z,67.07
2019-01-25T10:51:04.722Z,71.43
2019-01-25T10:53:35.297Z,83.63
2019-01-25T10:56:05.623Z,48.73
2019-01-25T10:58:36.003Z,66.03
2019-01-25T11:01:07.500Z,71.57
2019-01-25T11:03:38.129Z,68.77
2019-01-25T11:06:08.737Z,79.03
2019-01-25T11:08:39.204Z,73.70
2019-01-25T11:11:09.485Z,58.77
2019-01-25T11:13:39.907Z,49.60
2019-01-25T11:16:12.071Z,55.17
2019-01-25T11:18:42.639Z,55.63
2019-01-25T11:21:14.051Z,88.63
2019-01-25T11:23:44.429Z,54.93
2019-01-25T11:26:15.044Z,67.70
2019-01-25T11:28:45.929Z,52.30
2019-01-25T11:31:16.540Z,68.70
2019-01-25T11:33:47.055Z,58.33
2019-01-25T11:36:17.439Z,52.03
2019-01-25T11:38:48.000Z,62.50
2019-01-25T11:41:18.287Z,53.93
2019-01-25T11:43:48.653Z,75.40
2019-01-25T11:46:19.118Z,79.33
2019-01-25T11:48:49.994Z,63.60
2019-01-25T11:51:20.336Z,75.57
2019-01-25T11:53:50.586Z,68.50
2019-01-25T11:56:22.727Z,59.00
2019-01-25T11:58:53.195Z,96.97
2019-01-25T12:01:24.879Z,61.07
2019-01-25T12:03:55.436Z,85.80
2019-01-25T12:06:27.003Z,53.30
2019-01-25T12:08:57.735Z,84.57
2019-01-25T12:11:28.082Z,77.87
2019-01-25T12:13:58.541Z,72.87
2019-01-25T12:16:29.151Z,85.40
2019-01-25T12:18:59.963Z,64.37
2019-01-25T12:21:30.333Z,99.13
2019-01-25T12:24:00.589Z,82.80
2019-01-25T12:26:31.237Z,82.27
2019-01-25T12:29:01.934Z,74.97
2019-01-25T12:31:32.289Z,86.17
2019-01-25T12:34:02.960Z,89.97
2019-01-25T12:36:33.610Z,95.77
2019-01-25T12:39:05.831Z,70.13
2019-01-25T12:41:36.357Z,75.67
2019-01-25T12:44:06.888Z,65.13
2019-01-25T12:46:38.321Z,81.77
2019-01-25T12:49:08.820Z,67.40
2019-01-25T12:51:54.390Z,72.33
2019-01-25T12:54:24.991Z,58.80
2019-01-25T12:56:55.415Z,60.63
2019-01-25T12:59:27.317Z,50.80
2019-01-25T13:01:59.319Z,69.90
2019-01-25T13:04:29.874Z,68.60
2019-01-25T13:07:00.315Z,66.77
2019-01-25T13:09:30.965Z,60.53
2019-01-25T13:12:01.609Z,58.03
2019-01-25T13:14:31.957Z,60.50
2019-01-25T13:17:02.329Z,23.70
2019-01-25T13:19:32.989Z,51.10
2019-01-25T13:22:03.349Z,59.47
2019-01-25T13:24:33.864Z,66.47
2019-01-25T13:27:04.645Z,52.27
2019-01-25T13:29:35.583Z,57.57
2019-01-25T13:32:07.091Z,49.73
2019-01-25T13:34:37.839Z,44.87
2019-01-25T13:37:08.510Z,54.00
2019-01-25T13:39:39.449Z,73.03
2019-01-25T13:42:10.157Z,48.93
2019-01-25T13:44:40.846Z,60.53
2019-01-25T13:47:11.323Z,59.90
2019-01-25T13:49:42.231Z,45.50
2019-01-25T13:52:12.832Z,69.47
2019-01-25T13:54:43.557Z,62.90
2019-01-25T13:57:14.113Z,92.50
2019-01-25T13:59:44.520Z,84.17
2019-01-25T14:02:14.929Z,74.47
2019-01-25T14:04:45.393Z,85.03
2019-01-25T14:07:15.673Z,80.80
2019-01-25T14:09:46.061Z,65.63
2019-01-25T14:12:16.725Z,104.50
2019-01-25T14:14:48.962Z,61.63
2019-01-25T14:17:19.541Z,92.67
2019-01-25T14:19:50.073Z,84.70
2019-01-25T14:22:20.569Z,84.33
2019-01-25T14:24:51.283Z,71.67
2019-01-25T14:27:21.646Z,75.97
2019-01-25T14:29:52.317Z,81.50
2019-01-25T14:32:22.693Z,106.03
2019-01-25T14:34:53.243Z,96.57
2019-01-25T14:37:23.925Z,83.50
2019-01-25T14:39:54.426Z,66.00
2019-01-25T14:42:25.263Z,55.70
2019-01-25T14:44:55.875Z,92.37
2019-01-25T14:47:26.468Z,64.90
2019-01-25T14:49:58.026Z,109.77
2019-01-25T14:52:28.453Z,67.80
2019-01-25T14:54:59.225Z,81.13
2019-01-25T14:57:29.780Z,70.80
2019-01-25T15:00:00.290Z,71.90
2019-01-25T15:02:30.698Z,99.27
2019-01-25T15:05:01.689Z,111.40
2019-01-25T15:07:32.446Z,102.70
2019-01-25T15:10:03.342Z,99.07
2019-01-25T15:12:35.625Z,63.97
2019-01-25T15:15:07.667Z,71.83
2019-01-25T15:17:38.264Z,102.23
2019-01-25T15:20:11.417Z,75.43
2019-01-25T15:22:41.967Z,62.97
2019-01-25T15:25:12.686Z,54.63
2019-01-25T15:27:43.192Z,48.83
2019-01-25T15:30:25.144Z,95.27
2019-01-25T15:32:55.800Z,111.20
2019-01-25T15:35:26.270Z,76.87
2019-01-25T15:37:56.706Z,89.47
2019-01-25T15:40:27.179Z,88.50
2019-01-25T15:42:57.862Z,101.20
2019-01-25T15:45:28.568Z,74.47
2019-01-25T15:47:59.002Z,86.90
2019-01-25T15:50:33.392Z,87.93
2019-01-25T15:53:04.232Z,96.97
2019-01-25T15:55:34.823Z,58.30
2019-01-25T15:58:05.402Z,80.43
2019-01-25T16:00:36.133Z,44.57
2019-01-25T16:03:07.336Z,75.43
2019-01-25T16:05:37.865Z,98.30
2019-01-25T16:08:08.389Z,88.97
2019-01-25T16:10:39.010Z,84.37
2019-01-25T16:13:09.585Z,83.43
2019-01-25T16:15:43.379Z,93.03
2019-01-25T16:18:14.008Z,70.77
2019-01-25T16:20:44.415Z,57.03
2019-01-25T16:23:15.212Z,78.77
2019-01-25T16:25:45.669Z,85.73
2019-01-25T16:28:16.092Z,101.23
2019-01-25T16:30:46.478Z,66.60
2019-01-25T16:33:17.221Z,95.00
2019-01-25T16:35:47.626Z,106.63
2019-01-25T16:38:18.211Z,110.50
2019-01-25T16:40:48.593Z,106.20
2019-01-25T16:43:18.901Z,112.90
2019-01-25T16:45:49.458Z,108.80
2019-01-25T16:48:20.120Z,99.80
2019-01-25T16:50:50.876Z,104.70
2019-01-25T16:53:21.670Z,74.40
2019-01-25T16:55:52.184Z,98.97
2019-01-25T16:58:23.093Z,110.53
2019-01-25T17:00:53.509Z,91.53
2019-01-25T17:03:23.930Z,105.93
2019-01-25T17:05:54.701Z,95.20
2019-01-25T17:08:25.465Z,113.13
2019-01-25T17:10:56.024Z,110.73
2019-01-25T17:13:26.453Z,101.33
2019-01-25T17:15:57.175Z,78.10
2019-01-25T17:18:28.135Z,101.87
2019-01-25T17:20:58.648Z,80.83
2019-01-25T17:23:29.336Z,54.13
2019-01-25T17:25:59.710Z,103.53
2019-01-25T17:28:30.210Z,87.47
2019-01-25T17:31:00.770Z,79.97
2019-01-25T17:33:31.656Z,89.47
2019-01-25T17:36:02.248Z,78.10
2019-01-25T17:38:32.722Z,82.53
2019-01-25T17:41:03.424Z,64.10
2019-01-25T17:43:33.807Z,99.03
2019-01-25T17:46:04.223Z,115.00
2019-01-25T17:48:34.716Z,92.93
2019-01-25T17:51:05.479Z,95.17
2019-01-25T17:53:35.912Z,111.90
2019-01-25T17:56:06.539Z,83.80
2019-01-25T17:58:37.548Z,94.23
2019-01-25T18:01:08.256Z,95.87
2019-01-25T18:03:39.032Z,114.23
2019-01-25T18:06:10.773Z,101.60
2019-01-25T18:08:41.292Z,85.30
2019-01-25T18:11:11.782Z,99.20
2019-01-25T18:13:42.494Z,113.47
2019-01-25T18:16:13.240Z,110.23
2019-01-25T18:18:43.829Z,113.20
2019-01-25T18:21:14.340Z,99.60
2019-01-25T18:23:45.107Z,97.63
2019-01-25T18:26:19.285Z,108.40
2019-01-25T18:29:00.633Z,120.30
2019-01-25T18:31:32.591Z,111.03
2019-01-25T18:34:03.644Z,98.53
2019-01-25T18:36:34.570Z,93.80
2019-01-25T18:39:08.270Z,110.90
2019-01-25T18:41:38.940Z,82.63
2019-01-25T18:44:09.622Z,112.87
2019-01-25T18:46:40.622Z,112.77
2019-01-25T18:49:11.500Z,96.27
2019-01-25T18:51:42.186Z,108.90
2019-01-25T18:54:12.988Z,91.30
2019-01-25T18:56:48.872Z,118.77
2019-01-25T18:59:19.617Z,121.47
2019-01-25T19:01:50.136Z,116.10
2019-01-25T19:04:20.830Z,110.83
2019-01-25T19:06:51.273Z,140.33
2019-01-25T19:09:22.752Z,120.13
2019-01-25T19:11:53.062Z,121.40
2019-01-25T19:14:23.628Z,127.23
2019-01-25T19:16:54.405Z,104.70
2019-01-25T19:19:25.382Z,117.60
2019-01-25T19:21:56.349Z,120.23
2019-01-25T19:24:26.698Z,125.37
2019-01-25T19:26:57.651Z,122.13
2019-01-25T19:29:28.510Z,116.83
2019-01-25T19:31:59.092Z,121.17
2019-01-25T19:34:29.707Z,106.03
2019-01-25T19:37:00.168Z,113.90
2019-01-25T19:39:30.766Z,121.70
2019-01-25T19:42:01.758Z,129.57
2019-01-25T19:44:32.962Z,129.77
2019-01-25T19:47:03.696Z,99.57
2019-01-25T19:49:34.223Z,118.27
2019-01-25T19:52:04.820Z,109.87
2019-01-25T19:54:35.757Z,119.57
2019-01-25T19:57:06.478Z,86.93
2019-01-25T19:59:37.113Z,106.07
2019-01-25T20:02:07.810Z,120.37
2019-01-25T20:04:38.507Z,113.47
2019-01-25T20:07:09.266Z,123.67
2019-01-25T20:09:40.053Z,116.83
2019-01-25T20:12:10.916Z,123.70
2019-01-25T20:14:41.305Z,113.83
2019-01-25T20:17:12.174Z,131.87
2019-01-25T20:19:42.921Z,126.70
2019-01-25T20:22:13.847Z,118.13
2019-01-25T20:24:44.362Z,120.30
2019-01-25T20:27:15.328Z,92.20
2019-01-25T20:29:46.061Z,124.23
2019-01-25T20:32:16.503Z,117.20
2019-01-25T20:34:46.986Z,129.20
2019-01-25T20:37:17.914Z,127.80
2019-01-25T20:39:48.475Z,120.53
2019-01-25T20:42:19.021Z,115.00
2019-01-25T20:44:49.758Z,126.93
2019-01-25T20:47:21.144Z,116.87
2019-01-25T20:49:51.408Z,118.77
2019-01-25T20:52:22.191Z,108.17
2019-01-25T20:54:52.631Z,114.00
2019-01-25T20:57:23.275Z,126.73
2019-01-25T20:59:53.800Z,112.33
2019-01-25T21:02:24.398Z,117.43
2019-01-25T21:04:55.555Z,113.77
2019-01-25T21:07:26.886Z,109.57
2019-01-25T21:09:58.476Z,111.47
2019-01-25T21:12:29.260Z,98.60
2019-01-25T21:14:59.930Z,116.43
2019-01-25T21:17:30.524Z,102.97
2019-01-25T21:20:01.300Z,118.30
2019-01-25T21:22:32.477Z,123.80
2019-01-25T21:25:03.148Z,126.20
2019-01-25T21:27:33.983Z,123.30
2019-01-25T21:30:05.170Z,116.50
2019-01-25T21:32:35.940Z,125.77
2019-01-25T21:35:07.398Z,118.43
2019-01-25T21:37:39.077Z,120.93
2019-01-25T21:40:12.545Z,116.90
2019-01-25T21:42:43.086Z,140.67
2019-01-25T21:45:15.843Z,164.13
2019-01-25T21:47:46.348Z,156.47
2019-01-25T21:50:18.950Z,136.13
2019-01-25T21:52:49.661Z,166.07
2019-01-25T21:55:21.226Z,145.87
2019-01-25T21:57:51.740Z,135.53
2019-01-25T22:00:25.800Z,178.70
2019-01-25T22:02:56.451Z,172.57
2019-01-25T22:05:26.913Z,190.10
2019-01-25T22:07:57.199Z,186.83
2019-01-25T22:10:30.138Z,164.70
2019-01-25T22:13:00.802Z,160.57
2019-01-25T22:15:31.348Z,156.23
2019-01-25T22:18:01.669Z,148.40
2019-01-25T22:20:32.102Z,152.33
2019-01-25T22:23:03.449Z,144.67
2019-01-25T22:25:34.064Z,156.30
2019-01-25T22:28:04.712Z,135.40
2019-01-25T22:30:34.966Z,165.67
2019-01-25T22:33:05.353Z,158.40
2019-01-25T22:35:35.697Z,153.87
2019-01-25T22:38:06.401Z,182.67
2019-01-25T22:40:36.992Z,198.43
2019-01-25T22:43:07.404Z,150.77
2019-01-25T22:45:37.910Z,183.27
2019-01-25T22:48:08.596Z,175.73
2019-01-25T22:50:38.901Z,175.93
2019-01-25T22:53:09.207Z,181.40
2019-01-25T22:55:39.650Z,174.17
2019-01-25T22:58:09.946Z,193.83
2019-01-25T23:00:57.114Z,169.20
2019-01-25T23:03:41.700Z,168.00
2019-01-25T23:06:34.793Z,149.33
2019-01-25T23:09:15.903Z,168.03
2019-01-25T23:11:46.344Z,158.40
2019-01-25T23:14:16.860Z,188.73
2019-01-25T23:16:47.359Z,176.80
2019-01-25T23:19:17.821Z,177.93
2019-01-25T23:21:48.272Z,175.50
2019-01-25T23:24:18.668Z,191.90
2019-01-25T23:26:51.025Z,183.80
2019-01-25T23:29:21.652Z,196.20
2019-01-25T23:31:52.135Z,181.83
2019-01-25T23:34:22.808Z,190.23
2019-01-25T23:36:53.522Z,183.77
2019-01-25T23:39:24.204Z,198.70
2019-01-25T23:41:54.583Z,197.50
2019-01-25T23:44:25.367Z,201.63
2019-01-25T23:46:56.072Z,186.63
2019-01-25T23:49:26.659Z,187.73
2019-01-25T23:51:57.331Z,195.37
2019-01-25T23:54:29.052Z,181.07
2019-01-25T23:56:59.501Z,204.93
2019-01-25T23:59:29.839Z,194.37
